Time,TemperatureF,DewpointF,PressureIn,WindDirection,WindDirectionDegrees,WindSpeedMPH,WindSpeedGustMPH,Humidity,HourlyPrecipIn,Conditions,Clouds,dailyrainin,SoftwareType,DateUTC
2013-08-14 00:12:00,73.4,72.0,29.43,ENE,63,0.0,0.0,95,0.00,,,0.00,weatherlink.com 1.10,2013-08-14 05:12:00,
2013-08-14 00:27:00,73.1,72.0,29.44,ENE,63,0.0,0.0,95,0.00,,,0.00,weatherlink.com 1.10,2013-08-14 05:27:00,
2013-08-14 00:42:00,72.9,72.0,29.44,ENE,63,0.0,0.0,96,0.00,,,0.00,weatherlink.com 1.10,2013-08-14 05:42:00,
2013-08-14 00:57:00,72.8,72.0,29.43,ENE,63,0.0,0.0,96,0.00,,,0.00,weatherlink.com 1.10,2013-08-14 05:57:00,
2013-08-14 01:12:00,72.6,71.0,29.43,ENE,63,0.0,0.0,96,0.00,,,0.00,weatherlink.com 1.10,2013-08-14 06:12:00,
2013-08-14 01:27:00,72.5,71.0,29.44,ENE,63,0.0,0.0,96,0.00,,,0.00,weatherlink.com 1.10,2013-08-14 06:27:00,
2013-08-14 01:42:00,72.3,71.0,29.43,ENE,63,0.0,0.0,96,0.00,,,0.00,weatherlink.com 1.10,2013-08-14 06:42:00,
2013-08-14 01:57:00,72.1,71.0,29.44,ENE,63,0.0,0.0,96,0.00,,,0.00,weatherlink.com 1.10,2013-08-14 06:57:00,
2013-08-14 02:12:00,71.9,71.0,29.43,ENE,63,0.0,0.0,96,0.00,,,0.00,weatherlink.com 1.10,2013-08-14 07:12:00,
2013-08-14 02:27:00,71.7,71.0,29.43,ENE,63,0.0,0.0,96,0.00,,,0.00,weatherlink.com 1.10,2013-08-14 07:27:00,
2013-08-14 02:42:00,71.4,70.0,29.43,ENE,63,0.0,0.0,96,0.00,,,0.00,weatherlink.com 1.10,2013-08-14 07:42:00,
2013-08-14 02:57:00,71.4,70.0,29.43,ENE,63,0.0,0.0,96,0.00,,,0.00,weatherlink.com 1.10,2013-08-14 07:57:00,
2013-08-14 03:12:00,71.4,70.0,29.43,ENE,63,0.0,0.0,96,0.00,,,0.00,weatherlink.com 1.10,2013-08-14 08:12:00,
2013-08-14 03:27:00,71.4,70.0,29.43,ENE,63,0.0,0.0,96,0.00,,,0.00,weatherlink.com 1.10,2013-08-14 08:27:00,
2013-08-14 03:42:00,71.4,70.0,29.43,ENE,63,0.0,0.0,96,0.00,,,0.00,weatherlink.com 1.10,2013-08-14 08:42:00,
2013-08-14 03:57:00,71.3,70.0,29.43,ENE,63,0.0,0.0,96,0.00,,,0.00,weatherlink.com 1.10,2013-08-14 08:57:00,
2013-08-14 04:12:00,71.2,70.0,29.43,ENE,63,0.0,0.0,96,0.00,,,0.00,weatherlink.com 1.10,2013-08-14 09:12:00,
2013-08-14 04:27:00,71.1,70.0,29.44,ENE,63,0.0,0.0,96,0.00,,,0.00,weatherlink.com 1.10,2013-08-14 09:27:00,
2013-08-14 04:42:00,71.0,70.0,29.44,ENE,63,0.0,0.0,96,0.00,,,0.00,weatherlink.com 1.10,2013-08-14 09:42:00,
2013-08-14 04:57:00,70.9,70.0,29.44,ENE,63,0.0,0.0,96,0.00,,,0.00,weatherlink.com 1.10,2013-08-14 09:57:00,
2013-08-14 05:12:00,70.8,70.0,29.45,ENE,63,0.0,0.0,96,0.00,,,0.00,weatherlink.com 1.10,2013-08-14 10:12:00,
2013-08-14 05:28:00,70.7,70.0,29.45,ENE,63,0.0,0.0,96,0.00,,,0.00,weatherlink.com 1.10,2013-08-14 10:28:00,
2013-08-14 05:42:00,70.6,70.0,29.45,ENE,63,0.0,0.0,96,0.00,,,0.00,weatherlink.com 1.10,2013-08-14 10:42:00,
2013-08-14 05:57:00,70.5,69.0,29.46,ENE,63,0.0,0.0,96,0.00,,,0.00,weatherlink.com 1.10,2013-08-14 10:57:00,
2013-08-14 06:12:00,70.4,69.0,29.47,NE,48,0.0,0.0,96,0.00,,,0.00,weatherlink.com 1.10,2013-08-14 11:12:00,
2013-08-14 06:27:00,70.3,69.0,29.46,NE,49,0.0,0.0,96,0.00,,,0.00,weatherlink.com 1.10,2013-08-14 11:27:00,
2013-08-14 06:42:00,70.3,69.0,29.47,NE,48,0.0,0.0,96,0.00,,,0.00,weatherlink.com 1.10,2013-08-14 11:42:00,
2013-08-14 06:57:00,70.4,70.0,29.47,NE,49,0.0,0.0,97,0.00,,,0.00,weatherlink.com 1.10,2013-08-14 11:57:00,
2013-08-14 07:12:00,70.6,70.0,29.47,NE,48,0.0,0.0,97,0.00,,,0.00,weatherlink.com 1.10,2013-08-14 12:12:00,
2013-08-14 07:27:00,70.7,70.0,29.48,NE,49,0.0,0.0,96,0.00,,,0.00,weatherlink.com 1.10,2013-08-14 12:27:00,
2013-08-14 07:42:00,70.8,70.0,29.48,NE,48,0.0,0.0,96,0.00,,,0.00,weatherlink.com 1.10,2013-08-14 12:42:00,
2013-08-14 07:58:00,70.9,70.0,29.48,NE,48,0.0,0.0,96,0.00,,,0.00,weatherlink.com 1.10,2013-08-14 12:58:00,
2013-08-14 08:12:00,71.0,70.0,29.48,NW,316,0.0,0.0,96,0.00,,,0.00,weatherlink.com 1.10,2013-08-14 13:12:00,
2013-08-14 08:27:00,71.2,70.0,29.48,NNE,24,0.0,1.0,96,0.00,,,0.00,weatherlink.com 1.10,2013-08-14 13:27:00,
2013-08-14 08:42:00,71.5,70.0,29.48,NNE,24,0.0,0.0,95,0.00,,,0.00,weatherlink.com 1.10,2013-08-14 13:42:00,
2013-08-14 08:57:00,71.9,70.0,29.48,North,11,0.0,1.0,93,0.00,,,0.00,weatherlink.com 1.10,2013-08-14 13:57:00,
2013-08-14 09:12:00,72.2,70.0,29.48,NW,312,0.0,3.0,92,0.00,,,0.00,weatherlink.com 1.10,2013-08-14 14:12:00,
2013-08-14 09:27:00,72.3,70.0,29.48,North,355,0.0,6.0,91,0.00,,,0.00,weatherlink.com 1.10,2013-08-14 14:27:00,
2013-08-14 09:43:00,72.8,70.0,29.49,NW,315,0.0,3.0,91,0.00,,,0.00,weatherlink.com 1.10,2013-08-14 14:43:00,
2013-08-14 09:58:00,73.1,70.0,29.49,WSW,252,0.0,1.0,91,0.00,,,0.00,weatherlink.com 1.10,2013-08-14 14:58:00,
2013-08-14 10:13:00,73.2,70.0,29.49,East,95,0.0,1.0,90,0.00,,,0.00,weatherlink.com 1.10,2013-08-14 15:13:00,
2013-08-14 10:28:00,74.1,70.0,29.50,WNW,301,0.0,6.0,86,0.00,,,0.00,weatherlink.com 1.10,2013-08-14 15:28:00,
2013-08-14 10:43:00,74.6,70.0,29.50,NW,324,0.0,5.0,86,0.00,,,0.00,weatherlink.com 1.10,2013-08-14 15:43:00,
2013-08-14 10:58:00,75.3,71.0,29.50,North,355,0.0,4.0,87,0.00,,,0.00,weatherlink.com 1.10,2013-08-14 15:58:00,
2013-08-14 11:13:00,75.3,71.0,29.50,NW,321,0.0,1.0,87,0.00,,,0.00,weatherlink.com 1.10,2013-08-14 16:13:00,
2013-08-14 11:28:00,75.2,72.0,29.49,NNE,24,0.0,1.0,88,0.00,,,0.00,weatherlink.com 1.10,2013-08-14 16:28:00,
2013-08-14 11:43:00,75.5,72.0,29.49,NW,318,1.0,3.0,88,0.00,,,0.00,weatherlink.com 1.10,2013-08-14 16:43:00,
2013-08-14 11:58:00,75.7,72.0,29.49,WNW,291,0.0,3.0,87,0.00,,,0.00,weatherlink.com 1.10,2013-08-14 16:58:00,
2013-08-14 12:13:00,75.5,70.0,29.49,NW,326,0.0,5.0,83,0.00,,,0.00,weatherlink.com 1.10,2013-08-14 17:13:00,
2013-08-14 12:28:00,75.1,70.0,29.49,NE,34,0.0,4.0,85,0.00,,,0.00,weatherlink.com 1.10,2013-08-14 17:28:00,
2013-08-14 12:43:00,74.7,71.0,29.49,NNE,26,0.0,1.0,88,0.00,,,0.00,weatherlink.com 1.10,2013-08-14 17:43:00,
2013-08-14 12:58:00,74.0,70.0,29.48,NE,41,0.0,1.0,87,0.00,,,0.00,weatherlink.com 1.10,2013-08-14 17:58:00,
2013-08-14 13:13:00,74.3,71.0,29.49,NE,41,0.0,0.0,88,0.00,,,0.00,weatherlink.com 1.10,2013-08-14 18:13:00,
2013-08-14 13:28:00,74.6,71.0,29.48,NNW,335,0.0,4.0,89,0.00,,,0.00,weatherlink.com 1.10,2013-08-14 18:28:00,
2013-08-14 13:43:00,74.3,71.0,29.48,ENE,69,0.0,3.0,89,0.00,,,0.00,weatherlink.com 1.10,2013-08-14 18:43:00,
2013-08-14 14:13:00,75.8,72.0,29.47,North,9,0.0,6.0,87,0.00,,,0.00,weatherlink.com 1.10,2013-08-14 19:13:00,
2013-08-14 14:28:00,76.2,71.0,29.47,NNW,340,0.0,3.0,83,0.00,,,0.00,weatherlink.com 1.10,2013-08-14 19:28:00,
2013-08-14 14:43:00,76.6,72.0,29.47,NNW,333,0.0,2.0,85,0.00,,,0.00,weatherlink.com 1.10,2013-08-14 19:43:00,
2013-08-14 14:58:00,77.4,70.0,29.46,NW,304,1.0,8.0,79,0.00,,,0.00,weatherlink.com 1.10,2013-08-14 19:58:00,
2013-08-14 15:13:00,77.8,72.0,29.46,NE,45,3.0,5.0,81,0.00,,,0.00,weatherlink.com 1.10,2013-08-14 20:13:00,
2013-08-14 15:28:00,77.3,71.0,29.46,WNW,298,0.0,3.0,81,0.00,,,0.00,weatherlink.com 1.10,2013-08-14 20:28:00,
2013-08-14 15:43:00,77.5,72.0,29.46,West,268,0.0,9.0,82,0.00,,,0.00,weatherlink.com 1.10,2013-08-14 20:43:00,
2013-08-14 15:58:00,76.5,68.0,29.46,NW,325,0.0,3.0,76,0.00,,,0.00,weatherlink.com 1.10,2013-08-14 20:58:00,
2013-08-14 16:13:00,77.4,67.0,29.46,WNW,295,3.0,7.0,71,0.00,,,0.00,weatherlink.com 1.10,2013-08-14 21:13:00,
2013-08-14 16:28:00,77.7,66.0,29.46,ENE,57,0.0,8.0,67,0.00,,,0.00,weatherlink.com 1.10,2013-08-14 21:28:00,
2013-08-14 16:43:00,77.0,69.0,29.46,NW,309,0.0,4.0,75,0.00,,,0.00,weatherlink.com 1.10,2013-08-14 21:43:00,
2013-08-14 16:58:00,76.4,69.0,29.46,NW,311,0.0,5.0,77,0.00,,,0.00,weatherlink.com 1.10,2013-08-14 21:58:00,
2013-08-14 17:13:00,76.3,67.0,29.46,NE,39,0.0,6.0,74,0.00,,,0.00,weatherlink.com 1.10,2013-08-14 22:13:00,
2013-08-14 17:28:00,75.9,68.0,29.45,North,5,0.0,2.0,76,0.00,,,0.00,weatherlink.com 1.10,2013-08-14 22:28:00,
2013-08-14 17:43:00,75.3,68.0,29.45,WNW,282,0.0,2.0,79,0.00,,,0.00,weatherlink.com 1.10,2013-08-14 22:43:00,
2013-08-14 17:58:00,75.0,69.0,29.45,NNE,16,0.0,1.0,81,0.00,,,0.00,weatherlink.com 1.10,2013-08-14 22:58:00,
2013-08-14 18:13:00,74.8,69.0,29.46,NNE,17,0.0,1.0,83,0.00,,,0.00,weatherlink.com 1.10,2013-08-14 23:13:00,
2013-08-14 18:28:00,74.2,70.0,29.46,NNE,17,0.0,0.0,85,0.00,,,0.00,weatherlink.com 1.10,2013-08-14 23:28:00,
2013-08-14 18:43:00,73.8,70.0,29.46,NNE,17,0.0,0.0,87,0.00,,,0.00,weatherlink.com 1.10,2013-08-14 23:43:00,
2013-08-14 18:58:00,73.1,69.0,29.47,NNE,17,0.0,0.0,87,0.00,,,0.00,weatherlink.com 1.10,2013-08-14 23:58:00,
2013-08-14 19:13:00,72.5,69.0,29.47,NNE,17,0.0,0.0,88,0.00,,,0.00,weatherlink.com 1.10,2013-08-15 00:13:00,
2013-08-14 19:28:00,71.5,68.0,29.48,NNE,17,0.0,0.0,88,0.00,,,0.00,weatherlink.com 1.10,2013-08-15 00:28:00,
2013-08-14 19:43:00,70.5,67.0,29.48,NNE,17,0.0,0.0,89,0.00,,,0.00,weatherlink.com 1.10,2013-08-15 00:43:00,
2013-08-14 19:58:00,69.7,67.0,29.48,NNE,17,0.0,0.0,90,0.00,,,0.00,weatherlink.com 1.10,2013-08-15 00:58:00,
2013-08-14 20:14:00,69.0,66.0,29.48,NNE,17,0.0,0.0,91,0.00,,,0.00,weatherlink.com 1.10,2013-08-15 01:14:00,
2013-08-14 20:28:00,68.4,66.0,29.49,NNE,17,0.0,0.0,91,0.00,,,0.00,weatherlink.com 1.10,2013-08-15 01:28:00,
2013-08-14 20:43:00,68.0,66.0,29.49,NNE,17,0.0,0.0,93,0.00,,,0.00,weatherlink.com 1.10,2013-08-15 01:43:00,
2013-08-14 20:58:00,67.7,66.0,29.50,NNE,17,0.0,0.0,93,0.00,,,0.00,weatherlink.com 1.10,2013-08-15 01:58:00,
2013-08-14 21:14:00,67.5,66.0,29.51,NNE,17,0.0,0.0,93,0.00,,,0.00,weatherlink.com 1.10,2013-08-15 02:14:00,
2013-08-14 21:29:00,67.2,65.0,29.51,NNE,17,0.0,0.0,93,0.00,,,0.00,weatherlink.com 1.10,2013-08-15 02:29:00,
2013-08-14 21:44:00,67.0,65.0,29.51,NNE,17,0.0,0.0,94,0.00,,,0.00,weatherlink.com 1.10,2013-08-15 02:44:00,
2013-08-14 21:59:00,66.7,65.0,29.52,NNE,17,0.0,0.0,94,0.00,,,0.00,weatherlink.com 1.10,2013-08-15 02:59:00,
2013-08-14 22:14:00,66.4,65.0,29.52,NNE,17,0.0,0.0,94,0.00,,,0.00,weatherlink.com 1.10,2013-08-15 03:14:00,
2013-08-14 22:29:00,66.2,65.0,29.51,NNE,17,0.0,0.0,94,0.00,,,0.00,weatherlink.com 1.10,2013-08-15 03:29:00,
2013-08-14 22:44:00,66.1,64.0,29.51,NNE,17,0.0,0.0,94,0.00,,,0.00,weatherlink.com 1.10,2013-08-15 03:44:00,
2013-08-14 22:59:00,65.8,64.0,29.52,NNE,17,0.0,0.0,94,0.00,,,0.00,weatherlink.com 1.10,2013-08-15 03:59:00,
2013-08-14 23:14:00,65.5,64.0,29.52,NNE,17,0.0,0.0,95,0.00,,,0.00,weatherlink.com 1.10,2013-08-15 04:14:00,
2013-08-14 23:29:00,65.2,64.0,29.52,NNE,17,0.0,0.0,94,0.00,,,0.00,weatherlink.com 1.10,2013-08-15 04:29:00,
2013-08-14 23:44:00,65.0,64.0,29.52,NNE,17,0.0,0.0,95,0.00,,,0.00,weatherlink.com 1.10,2013-08-15 04:44:00,
2013-08-14 23:59:00,64.9,64.0,29.52,NNE,17,0.0,0.0,95,0.00,,,0.00,weatherlink.com 1.10,2013-08-15 04:59:00,